Terminal Aerodrome Forecast
Issued by NWS Amarillo, TX

Home | Current Version | Previous Version | Text Only | Print | Product List | Glossary On
Versions: 1 2 3 4 5 6 7 8 9 10 11 12 13 14 15 16 17 18 19 20 21 22 23 24 25 26 27 28 29 30 31
841
FTUS44 KAMA 221400 AAA
TAFDHT
TAF AMD
KDHT 221434Z 2215/2312 18010KT 6SM BR OVC008
      TEMPO 2215/2218 SCT008 OVC012
     FM221800 19015KT P6SM OVC015
     FM221900 19016G26KT P6SM SCT015 OVC030
     FM230100 17015KT P6SM OVC015
     FM230600 16014KT 4SM SHRA VCTS SCT004 BKN010CB=

USA.gov is the U.S. government's official web portal to all federal, state and local government web resources and services.